Central Oregon RPC :: PAISLEY, OR D

liberation: 2020-05-16  07:30     latitude: 42.711350     longitude: -120.560250 113 birds
# LOFT PRING MILES ARRIVAL SPEED ToWin
1 ROCKY TOP AU18-CORP-3354 108.983 2020-05-16 09:21:40.261 1717.638 00:00:00
2 ROCKY TOP AU16-CORP-7143 108.983 2020-05-16 09:21:47.116 1715.882 00:00:07
3 TOPIGEONUSA AU18-CORP-4272 116.048 2020-05-16 09:31:14.948 1684.506 00:02:20
4 TOPIGEONUSA AU14-CORP-1078 116.048 2020-05-16 09:31:15.345 1684.414 00:02:21
5 STEELE LOFT AU19-CORP-4008 116.355 2020-05-16 09:31:55.098 1679.689 00:02:42
6 STEELE LOFT AU19-CORP-4007 116.355 2020-05-16 09:31:55.965 1679.490 00:02:42
7 STEELE LOFT AU19-CORP-4045 116.355 2020-05-16 09:31:56.632 1679.337 00:02:43
8 STEELE LOFT AU18-CORP-4093 116.355 2020-05-16 09:32:01.198 1678.289 00:02:48
9 STEELE LOFT AU19-CORP-4002 116.355 2020-05-16 09:32:15.617 1674.990 00:03:02
10 HENDRICKSON FAMILY LOFT AU19-CORP-4354 113.192 2020-05-16 09:29:07.739 1672.289 00:03:09
11 HENDRICKSON FAMILY LOFT AU18-CORP-4005 113.192 2020-05-16 09:29:10.256 1671.700 00:03:11
12 HENDRICKSON FAMILY LOFT AU18-CORP-4028 113.192 2020-05-16 09:30:22.065 1655.079 00:04:23
13 TOPIGEONUSA AU18-CORP-4205 116.048 2020-05-16 09:33:45.511 1650.350 00:04:51
14 STEELE LOFT AU19-JEDD-1973 116.355 2020-05-16 09:34:17.475 1647.620 00:05:04
15 TOPIGEONUSA AU19-CORP-5140 116.048 2020-05-16 09:35:03.016 1633.302 00:06:08
16 TOPIGEONUSA AU19-CORP-5136 116.048 2020-05-16 09:36:41.258 1612.192 00:07:47
17 AMERICAN LOFT AU18-CORP-2818 113.112 2020-05-16 09:36:11.876 1577.494 00:10:18
18 AMERICAN LOFT AU19-CORP-4699 113.112 2020-05-16 09:36:12.517 1577.360 00:10:18
19 HENDRICKSON FAMILY LOFT AU19-CORP-4359 113.192 2020-05-16 09:36:19.714 1576.984 00:10:21
20 HENDRICKSON FAMILY LOFT AU18-CORP-4046 113.192 2020-05-16 09:36:20.298 1576.862 00:10:21
21 HENDRICKSON FAMILY LOFT AU19-ARPU-29030 113.192 2020-05-16 09:36:21.862 1576.537 00:10:23
22 HENDRICKSON FAMILY LOFT AU18-CORP-4012 113.192 2020-05-16 09:36:22.446 1576.415 00:10:23
23 AMERICAN LOFT AU19-CORP-4690 113.112 2020-05-16 09:36:17.825 1576.255 00:10:24
24 HENDRICKSON FAMILY LOFT AU19-ARPU-29020 113.192 2020-05-16 09:36:25.454 1575.790 00:10:26
25 RUETER FAMILY LOFT AU19-CORP-5289 143.014 2020-05-16 10:10:19.963 1569.892 00:13:47
26 RUETER FAMILY LOFT AU19-CORP-5392 143.014 2020-05-16 10:10:24.569 1569.140 00:13:52
27 RUETER FAMILY LOFT AU19-CORP-5438 143.014 2020-05-16 10:10:25.405 1569.004 00:13:53
28 RUETER FAMILY LOFT AU19-CORP-5351 143.014 2020-05-16 10:10:27.886 1568.600 00:13:55
29 RUETER FAMILY LOFT AU19-CORP-5367 143.014 2020-05-16 10:10:34.245 1567.564 00:14:02
30 RUETER FAMILY LOFT AU19-CORP-5455 143.014 2020-05-16 10:10:40.178 1566.600 00:14:08
31 RUETER FAMILY LOFT AU19-CORP-5280 143.014 2020-05-16 10:10:57.991 1563.710 00:14:26
32 STEELE LOFT AU19-AVI-19525 116.355 2020-05-16 09:40:58.500 1563.541 00:11:45
33 STEELE LOFT AU19-CORP-4006 116.355 2020-05-16 09:41:00.769 1563.090 00:11:47
34 ROCKY TOP AU16-CORP-7706 108.983 2020-05-16 09:32:49.236 1561.711 00:11:09
35 RUETER FAMILY LOFT AU18-CORP-2744 143.014 2020-05-16 10:11:13.783 1561.157 00:14:41
36 ROCKY TOP AU19-CORP-4477 108.983 2020-05-16 09:33:53.456 1548.219 00:12:13
37 ROCKY TOP AU17-CORP-0798 108.983 2020-05-16 09:36:28.000 1516.687 00:14:48
38 ROCKY TOP AU19-CORP-4490 108.983 2020-05-16 09:36:32.816 1515.725 00:14:53
39 ROCKY TOP AU18-CORP-3351 108.983 2020-05-16 09:36:37.391 1514.812 00:14:57
40 RUETER FAMILY LOFT AU17-CORP-0419 143.014 2020-05-16 10:17:42.649 1500.827 00:21:10
41 ROCKY TOP AU17-OTC-0317 108.983 2020-05-16 09:38:55.037 1487.856 00:17:15
42 RUETER FAMILY LOFT AU19-CORP-5335 143.014 2020-05-16 10:19:27.777 1485.310 00:22:55
43 ROCKY TOP AU19-CORP-4435 108.983 2020-05-16 09:39:25.741 1481.973 00:17:45
44 ROCKY TOP AU18-CORP-3313 108.983 2020-05-16 09:39:35.044 1480.200 00:17:55
45 ROCKY TOP AU19-CORP-4405 108.983 2020-05-16 09:39:38.262 1479.588 00:17:58
46 ROCKY TOP AU18-CORP-3349 108.983 2020-05-16 09:39:39.535 1479.346 00:17:59
47 ROCKY TOP AU19-ARPU-29012 108.983 2020-05-16 09:39:39.912 1479.274 00:18:00
48 ROCKY TOP AU19-CORP-4464 108.983 2020-05-16 09:39:42.815 1478.722 00:18:03
49 ROCKY TOP AU19-CORP-4400 108.983 2020-05-16 09:39:46.797 1477.966 00:18:07
50 ROCKY TOP AU19-JEDD-0505 108.983 2020-05-16 09:39:48.427 1477.657 00:18:08
51 ROCKY TOP AU18-CORP-3365 108.983 2020-05-16 09:39:48.916 1477.564 00:18:09
52 ROCKY TOP AU18-CORP-3353 108.983 2020-05-16 09:39:50.893 1477.189 00:18:11
53 ROCKY TOP AU19-CORP-4443 108.983 2020-05-16 09:40:03.608 1474.782 00:18:23
54 ROCKY TOP AU19-CORP-4442 108.983 2020-05-16 09:40:10.404 1473.499 00:18:30
55 ROCKY TOP AU19-CORP-4474 108.983 2020-05-16 09:40:15.594 1472.520 00:18:35
56 RUETER FAMILY LOFT AU19-CORP-5456 143.014 2020-05-16 10:21:46.758 1465.281 00:25:14
57 RUETER FAMILY LOFT AU19-CORP-5358 143.014 2020-05-16 10:21:52.624 1464.448 00:25:20
58 RUETER FAMILY LOFT AU19-CORP-5445 143.014 2020-05-16 10:22:28.840 1459.323 00:25:56
59 RUETER FAMILY LOFT AU19-CORP-5295 143.014 2020-05-16 10:23:44.677 1448.707 00:27:12
60 ROCKY TOP AU18-CORP-3310 108.983 2020-05-16 09:43:17.702 1438.991 00:21:37
61 ROCKY TOP AU18-CORP-3343 108.983 2020-05-16 09:43:18.082 1438.923 00:21:38
62 RUETER FAMILY LOFT AU19-CORP-5330 143.014 2020-05-16 10:26:07.185 1429.170 00:29:35
63 ROCKY TOP AU16-CORP-7701 108.983 2020-05-16 09:44:20.373 1427.802 00:22:40
64 HENDRICKSON FAMILY LOFT AU18-CORP-4034 113.192 2020-05-16 09:50:50.962 1414.405 00:24:52
65 RUETER FAMILY LOFT AU19-CORP-5413 143.014 2020-05-16 10:28:35.237 1409.423 00:32:03
66 AMERICAN LOFT AU19-CORP-4753 113.112 2020-05-16 09:51:19.286 1408.678 00:25:25
67 RUETER FAMILY LOFT AU19-CORP-5447 143.014 2020-05-16 10:28:43.510 1408.335 00:32:11
68 RUETER FAMILY LOFT AU19-CORP-5310 143.014 2020-05-16 10:28:46.049 1408.002 00:32:14
69 HENDRICKSON FAMILY LOFT AU19-CORP-4385 113.192 2020-05-16 09:53:07.288 1391.951 00:27:08
70 RUETER FAMILY LOFT AU18-CORP-2643 143.014 2020-05-16 10:34:06.554 1367.150 00:37:34
71 HENDRICKSON FAMILY LOFT AU19-CORP-4372 113.192 2020-05-16 09:56:50.726 1356.652 00:30:52
72 HENDRICKSON FAMILY LOFT AU19-CORP-4364 113.192 2020-05-16 09:57:09.625 1353.748 00:31:11
73 HENDRICKSON FAMILY LOFT AU18-CORP-4006 113.192 2020-05-16 09:57:12.726 1353.272 00:31:14
74 AMERICAN LOFT AU19-CORP-4652 113.112 2020-05-16 09:57:12.847 1352.292 00:31:19
75 TOPIGEONUSA AU17-VLJ-0728 116.048 2020-05-16 10:01:52.201 1344.866 00:32:58
76 HENDRICKSON FAMILY LOFT AU19-CORP-4366 113.192 2020-05-16 09:58:19.921 1343.055 00:32:21
77 HENDRICKSON FAMILY LOFT AU19-ARPU-29019 113.192 2020-05-16 09:59:42.028 1330.778 00:33:43
78 HENDRICKSON FAMILY LOFT AU18-CORP-4008 113.192 2020-05-16 10:02:52.053 1303.207 00:36:53
79 AMERICAN LOFT AU19-CORP-4751 113.112 2020-05-16 10:02:53.912 1302.017 00:37:00
80 RUETER FAMILY LOFT AU19-CORP-5336 143.014 2020-05-16 10:51:54.240 1246.657 00:55:22
81 HENDRICKSON FAMILY LOFT AU18-CORP-4007 113.192 2020-05-16 10:13:06.285 1221.412 00:47:07
82 RUETER FAMILY LOFT AU17-CORP-0521 143.014 2020-05-16 11:01:40.026 1189.155 01:05:08
83 HENDRICKSON FAMILY LOFT AU19-CORP-4360 113.192 2020-05-16 10:29:04.803 1112.453 01:03:06
84 RUETER FAMILY LOFT AU17-CORP-0498 143.014 2020-05-16 11:40:04.653 1006.508 01:43:32
85 AMERICAN LOFT AU19-CORP-4735 113.112 2020-05-16 10:49:52.560 996.000 01:23:58
86 AMERICAN LOFT AU19-CORP-4769 113.112 2020-05-16 10:50:09.352 994.607 01:24:15
87 AMERICAN LOFT AU18-CORP-2549 113.112 2020-05-16 10:52:46.978 981.722 01:26:53
88 RUETER FAMILY LOFT AU19-CORP-5317 143.014 2020-05-16 11:57:11.724 942.026 02:00:39
89 RUETER FAMILY LOFT AU19-CORP-5458 143.014 2020-05-16 11:59:44.097 933.157 02:03:12
90 TOPIGEONUSA AU19-CORP-5128 116.048 2020-05-16 11:13:25.666 914.143 01:44:31
91 RUETER FAMILY LOFT AU19-CORP-5376 143.014 2020-05-16 12:36:44.294 820.586 02:40:12
92 AMERICAN LOFT AU19-CORP-4746 113.112 2020-05-16 11:40:45.454 793.900 02:14:51
93 AMERICAN LOFT AU19-CORP-4706 113.112 2020-05-16 12:15:36.697 697.018 02:49:43
94 TOPIGEONUSA AU19-CORP-5124 116.048 2020-05-16 12:50:24.838 637.440 03:21:30
95 STEELE LOFT AU19-CORP-4024 116.355 2020-05-16 12:54:56.168 630.231 03:25:43
96 RUETER FAMILY LOFT AU18-CORP-2626 143.014 2020-05-17 07:04:53.521 274.330 12:50:59
97 TIM GRAVES AU17-SWWR-7335 107.552 2020-05-20 11:41:43.167 41.828 73:35:16
98 TIM GRAVES AU19-CORP-4207 107.552 2020-05-20 11:47:58.779 41.770 73:41:33
99 TIM GRAVES AU15-CORP-3096 107.552 2020-05-20 11:48:44.551 41.763 73:42:19
99 TIM GRAVES AU17-CORP-0883 107.552 2020-05-20 11:48:46.096 41.763 73:42:19
99 TIM GRAVES AU17-FHI-1014 107.552 2020-05-20 11:48:47.991 41.763 73:42:19
100 TIM GRAVES AU17-CORP-2034 107.552 2020-05-20 11:48:52.073 41.762 73:42:25
100 TIM GRAVES AU17-FHI-0202 107.552 2020-05-20 11:48:55.076 41.762 73:42:25
101 TIM GRAVES AU19-CORP-4220 107.552 2020-05-20 11:49:02.516 41.761 73:42:32
102 TIM GRAVES AU16-FHI-0243 107.552 2020-05-20 11:51:19.632 41.740 73:44:49
AMERICAN LOFT AU19-CORP-4681 0 0000-00-00 00:00:00.000 0.000 00:00:00
AMERICAN LOFT AU19-CORP-4726 0 0000-00-00 00:00:00.000 0.000 00:00:00
AMERICAN LOFT AU19-CORP-4741 0 0000-00-00 00:00:00.000 0.000 00:00:00
RUETER FAMILY LOFT AU18-CORP-2600 0 0000-00-00 00:00:00.000 0.000 00:00:00
RUETER FAMILY LOFT AU18-CORP-2644 0 0000-00-00 00:00:00.000 0.000 00:00:00
RUETER FAMILY LOFT AU19-CORP-5425 0 0000-00-00 00:00:00.000 0.000 00:00:00
TIM GRAVES AU14-TAR-0426 0 0000-00-00 00:00:00.000 0.000 00:00:00
TOPIGEONUSA AU14-CORP-1100 0 0000-00-00 00:00:00.000 0.000 00:00:00